sensor_id;sensor_type;location;lat;lon;timestamp;P1;durP1;ratioP1;P2;durP2;ratioP2
62268;SDS011;56517;51.634;5.566;2022-08-21T00:03:56;15.00;;;9.80;;
62268;SDS011;56517;51.634;5.566;2022-08-21T00:08:57;17.13;;;11.45;;
62268;SDS011;56517;51.634;5.566;2022-08-21T00:13:57;15.10;;;10.65;;
62268;SDS011;56517;51.634;5.566;2022-08-21T00:18:59;12.70;;;9.85;;
62268;SDS011;56517;51.634;5.566;2022-08-21T00:24:00;17.13;;;10.32;;
62268;SDS011;56517;51.634;5.566;2022-08-21T00:29:00;17.25;;;11.68;;
62268;SDS011;56517;51.634;5.566;2022-08-21T00:34:03;15.57;;;9.63;;
62268;SDS011;56517;51.634;5.566;2022-08-21T00:39:05;15.00;;;9.50;;
62268;SDS011;56517;51.634;5.566;2022-08-21T00:44:06;12.75;;;9.68;;
62268;SDS011;56517;51.634;5.566;2022-08-21T00:49:10;14.60;;;9.90;;
62268;SDS011;56517;51.634;5.566;2022-08-21T00:54:11;17.20;;;10.85;;
62268;SDS011;56517;51.634;5.566;2022-08-21T00:59:12;19.40;;;10.75;;
62268;SDS011;56517;51.634;5.566;2022-08-21T01:04:14;15.52;;;10.82;;
62268;SDS011;56517;51.634;5.566;2022-08-21T01:09:14;13.57;;;9.63;;
62268;SDS011;56517;51.634;5.566;2022-08-21T01:14:15;18.13;;;10.48;;
62268;SDS011;56517;51.634;5.566;2022-08-21T01:19:17;13.52;;;10.02;;
62268;SDS011;56517;51.634;5.566;2022-08-21T01:24:20;19.00;;;11.65;;
62268;SDS011;56517;51.634;5.566;2022-08-21T01:29:23;15.95;;;10.63;;
62268;SDS011;56517;51.634;5.566;2022-08-21T01:34:25;14.80;;;10.13;;
62268;SDS011;56517;51.634;5.566;2022-08-21T01:39:27;20.92;;;11.02;;
62268;SDS011;56517;51.634;5.566;2022-08-21T01:44:28;16.42;;;10.27;;
62268;SDS011;56517;51.634;5.566;2022-08-21T01:49:28;19.10;;;11.18;;
62268;SDS011;56517;51.634;5.566;2022-08-21T01:54:31;16.35;;;11.20;;
62268;SDS011;56517;51.634;5.566;2022-08-21T01:59:32;19.77;;;11.25;;
62268;SDS011;56517;51.634;5.566;2022-08-21T02:04:33;20.63;;;11.68;;
62268;SDS011;56517;51.634;5.566;2022-08-21T02:09:35;18.08;;;11.52;;
62268;SDS011;56517;51.634;5.566;2022-08-21T02:14:36;15.95;;;11.05;;
62268;SDS011;56517;51.634;5.566;2022-08-21T02:19:37;18.05;;;11.55;;
62268;SDS011;56517;51.634;5.566;2022-08-21T02:24:39;17.63;;;10.50;;
62268;SDS011;56517;51.634;5.566;2022-08-21T02:29:40;17.17;;;11.48;;
62268;SDS011;56517;51.634;5.566;2022-08-21T02:34:40;16.23;;;11.50;;
62268;SDS011;56517;51.634;5.566;2022-08-21T02:39:42;17.83;;;11.40;;
62268;SDS011;56517;51.634;5.566;2022-08-21T02:44:43;17.38;;;10.88;;
62268;SDS011;56517;51.634;5.566;2022-08-21T02:49:43;16.40;;;10.18;;
62268;SDS011;56517;51.634;5.566;2022-08-21T02:54:45;13.43;;;10.15;;
62268;SDS011;56517;51.634;5.566;2022-08-21T02:59:46;14.68;;;10.35;;
62268;SDS011;56517;51.634;5.566;2022-08-21T03:04:46;20.23;;;10.27;;
62268;SDS011;56517;51.634;5.566;2022-08-21T03:09:48;18.73;;;10.88;;
62268;SDS011;56517;51.634;5.566;2022-08-21T03:14:49;12.05;;;10.10;;
62268;SDS011;56517;51.634;5.566;2022-08-21T03:19:49;15.10;;;10.38;;
62268;SDS011;56517;51.634;5.566;2022-08-21T03:24:51;16.13;;;11.38;;
62268;SDS011;56517;51.634;5.566;2022-08-21T03:29:52;15.52;;;10.70;;
62268;SDS011;56517;51.634;5.566;2022-08-21T03:34:53;23.00;;;11.43;;
62268;SDS011;56517;51.634;5.566;2022-08-21T03:39:54;12.95;;;9.60;;
62268;SDS011;56517;51.634;5.566;2022-08-21T03:44:55;12.48;;;9.35;;
62268;SDS011;56517;51.634;5.566;2022-08-21T03:49:56;16.50;;;11.20;;
62268;SDS011;56517;51.634;5.566;2022-08-21T03:54:57;19.70;;;11.57;;
62268;SDS011;56517;51.634;5.566;2022-08-21T03:59:58;16.15;;;11.95;;
62268;SDS011;56517;51.634;5.566;2022-08-21T04:04:59;20.67;;;12.35;;
62268;SDS011;56517;51.634;5.566;2022-08-21T04:10:01;16.00;;;11.38;;
62268;SDS011;56517;51.634;5.566;2022-08-21T04:15:02;17.48;;;11.57;;
62268;SDS011;56517;51.634;5.566;2022-08-21T04:20:04;22.45;;;13.65;;
62268;SDS011;56517;51.634;5.566;2022-08-21T04:25:06;19.30;;;12.65;;
62268;SDS011;56517;51.634;5.566;2022-08-21T04:30:08;21.30;;;13.52;;
62268;SDS011;56517;51.634;5.566;2022-08-21T04:35:10;22.27;;;14.18;;
62268;SDS011;56517;51.634;5.566;2022-08-21T04:40:12;24.08;;;14.20;;
62268;SDS011;56517;51.634;5.566;2022-08-21T04:45:17;19.63;;;12.63;;
62268;SDS011;56517;51.634;5.566;2022-08-21T04:50:19;23.30;;;13.48;;
62268;SDS011;56517;51.634;5.566;2022-08-21T04:55:21;21.02;;;13.68;;
62268;SDS011;56517;51.634;5.566;2022-08-21T05:00:23;22.30;;;13.05;;
62268;SDS011;56517;51.634;5.566;2022-08-21T05:05:24;26.67;;;14.05;;
62268;SDS011;56517;51.634;5.566;2022-08-21T05:10:26;23.05;;;14.70;;
62268;SDS011;56517;51.634;5.566;2022-08-21T05:15:27;24.90;;;16.15;;
62268;SDS011;56517;51.634;5.566;2022-08-21T05:20:28;29.13;;;16.42;;
62268;SDS011;56517;51.634;5.566;2022-08-21T05:25:30;24.48;;;16.23;;
62268;SDS011;56517;51.634;5.566;2022-08-21T05:30:30;24.50;;;14.80;;
62268;SDS011;56517;51.634;5.566;2022-08-21T05:35:31;26.27;;;14.98;;
62268;SDS011;56517;51.634;5.566;2022-08-21T05:40:33;24.73;;;14.63;;
62268;SDS011;56517;51.634;5.566;2022-08-21T05:45:34;23.40;;;13.93;;
62268;SDS011;56517;51.634;5.566;2022-08-21T05:50:34;18.08;;;13.13;;
62268;SDS011;56517;51.634;5.566;2022-08-21T05:55:37;21.50;;;13.10;;
62268;SDS011;56517;51.634;5.566;2022-08-21T06:00:38;22.58;;;10.90;;
62268;SDS011;56517;51.634;5.566;2022-08-21T06:05:38;19.13;;;12.05;;
62268;SDS011;56517;51.634;5.566;2022-08-21T06:10:40;20.95;;;12.23;;
62268;SDS011;56517;51.634;5.566;2022-08-21T06:15:41;19.25;;;11.57;;
62268;SDS011;56517;51.634;5.566;2022-08-21T06:20:42;22.02;;;11.77;;
62268;SDS011;56517;51.634;5.566;2022-08-21T06:25:44;23.02;;;11.25;;
62268;SDS011;56517;51.634;5.566;2022-08-21T06:30:44;18.52;;;10.73;;
62268;SDS011;56517;51.634;5.566;2022-08-21T06:35:45;14.73;;;9.52;;
62268;SDS011;56517;51.634;5.566;2022-08-21T06:40:47;15.43;;;9.05;;
62268;SDS011;56517;51.634;5.566;2022-08-21T06:45:47;15.73;;;8.98;;
62268;SDS011;56517;51.634;5.566;2022-08-21T06:50:48;16.92;;;8.98;;
62268;SDS011;56517;51.634;5.566;2022-08-21T06:55:50;17.02;;;9.10;;
62268;SDS011;56517;51.634;5.566;2022-08-21T07:00:50;22.00;;;9.27;;
62268;SDS011;56517;51.634;5.566;2022-08-21T07:05:51;13.68;;;8.52;;
62268;SDS011;56517;51.634;5.566;2022-08-21T07:10:53;22.60;;;7.60;;
62268;SDS011;56517;51.634;5.566;2022-08-21T07:15:54;23.63;;;8.27;;
62268;SDS011;56517;51.634;5.566;2022-08-21T07:20:55;17.30;;;6.72;;
62268;SDS011;56517;51.634;5.566;2022-08-21T07:25:57;14.13;;;7.03;;
62268;SDS011;56517;51.634;5.566;2022-08-21T07:30:58;17.88;;;7.43;;
62268;SDS011;56517;51.634;5.566;2022-08-21T07:35:59;14.20;;;6.85;;
62268;SDS011;56517;51.634;5.566;2022-08-21T07:41:02;15.27;;;6.80;;
62268;SDS011;56517;51.634;5.566;2022-08-21T07:46:03;13.13;;;6.72;;
62268;SDS011;56517;51.634;5.566;2022-08-21T07:51:06;14.80;;;7.30;;
62268;SDS011;56517;51.634;5.566;2022-08-21T07:56:08;15.93;;;6.95;;
62268;SDS011;56517;51.634;5.566;2022-08-21T08:01:08;14.02;;;7.15;;
62268;SDS011;56517;51.634;5.566;2022-08-21T08:06:09;18.60;;;7.60;;
62268;SDS011;56517;51.634;5.566;2022-08-21T08:11:11;16.83;;;7.25;;
62268;SDS011;56517;51.634;5.566;2022-08-21T08:16:12;15.27;;;7.22;;
62268;SDS011;56517;51.634;5.566;2022-08-21T08:21:13;22.70;;;7.03;;
62268;SDS011;56517;51.634;5.566;2022-08-21T08:26:15;17.88;;;7.10;;
62268;SDS011;56517;51.634;5.566;2022-08-21T08:31:16;13.98;;;6.18;;
62268;SDS011;56517;51.634;5.566;2022-08-21T08:36:16;12.65;;;7.22;;
62268;SDS011;56517;51.634;5.566;2022-08-21T08:41:19;19.95;;;7.75;;
62268;SDS011;56517;51.634;5.566;2022-08-21T08:46:20;17.73;;;7.60;;
62268;SDS011;56517;51.634;5.566;2022-08-21T08:51:25;14.43;;;6.60;;
62268;SDS011;56517;51.634;5.566;2022-08-21T08:56:29;15.90;;;6.22;;
62268;SDS011;56517;51.634;5.566;2022-08-21T09:01:30;14.07;;;6.75;;
62268;SDS011;56517;51.634;5.566;2022-08-21T09:06:34;15.30;;;7.68;;
62268;SDS011;56517;51.634;5.566;2022-08-21T09:11:41;15.20;;;6.97;;
62268;SDS011;56517;51.634;5.566;2022-08-21T09:16:45;12.75;;;5.70;;
62268;SDS011;56517;51.634;5.566;2022-08-21T09:21:47;11.50;;;6.25;;
62268;SDS011;56517;51.634;5.566;2022-08-21T09:26:53;13.70;;;6.15;;
62268;SDS011;56517;51.634;5.566;2022-08-21T09:31:54;14.30;;;6.38;;
62268;SDS011;56517;51.634;5.566;2022-08-21T09:36:55;14.85;;;6.63;;
62268;SDS011;56517;51.634;5.566;2022-08-21T09:41:58;11.70;;;6.88;;
62268;SDS011;56517;51.634;5.566;2022-08-21T09:46:59;12.65;;;6.07;;
62268;SDS011;56517;51.634;5.566;2022-08-21T09:51:59;16.27;;;6.50;;
62268;SDS011;56517;51.634;5.566;2022-08-21T09:57:12;11.80;;;5.75;;
62268;SDS011;56517;51.634;5.566;2022-08-21T10:02:21;10.75;;;5.53;;
62268;SDS011;56517;51.634;5.566;2022-08-21T10:07:23;10.13;;;5.78;;
62268;SDS011;56517;51.634;5.566;2022-08-21T10:12:26;9.15;;;4.90;;
62268;SDS011;56517;51.634;5.566;2022-08-21T10:17:41;9.82;;;5.65;;
62268;SDS011;56517;51.634;5.566;2022-08-21T10:22:43;6.90;;;4.65;;
62268;SDS011;56517;51.634;5.566;2022-08-21T10:27:49;9.57;;;5.38;;
62268;SDS011;56517;51.634;5.566;2022-08-21T10:32:55;13.40;;;5.28;;
62268;SDS011;56517;51.634;5.566;2022-08-21T10:38:06;10.23;;;5.57;;
62268;SDS011;56517;51.634;5.566;2022-08-21T10:43:16;8.48;;;4.90;;
62268;SDS011;56517;51.634;5.566;2022-08-21T10:48:21;12.10;;;5.00;;
62268;SDS011;56517;51.634;5.566;2022-08-21T10:53:29;9.80;;;5.32;;
62268;SDS011;56517;51.634;5.566;2022-08-21T10:58:36;10.60;;;5.60;;
62268;SDS011;56517;51.634;5.566;2022-08-21T11:03:39;14.02;;;5.38;;
62268;SDS011;56517;51.634;5.566;2022-08-21T11:08:42;7.35;;;5.50;;
62268;SDS011;56517;51.634;5.566;2022-08-21T11:13:45;9.43;;;5.25;;
62268;SDS011;56517;51.634;5.566;2022-08-21T11:18:49;9.45;;;6.30;;
62268;SDS011;56517;51.634;5.566;2022-08-21T11:23:52;8.38;;;5.78;;
62268;SDS011;56517;51.634;5.566;2022-08-21T11:28:58;11.82;;;6.18;;
62268;SDS011;56517;51.634;5.566;2022-08-21T11:34:03;10.75;;;5.45;;
62268;SDS011;56517;51.634;5.566;2022-08-21T11:39:08;9.82;;;5.72;;
62268;SDS011;56517;51.634;5.566;2022-08-21T11:44:15;13.02;;;5.30;;
62268;SDS011;56517;51.634;5.566;2022-08-21T11:49:25;9.10;;;4.70;;
62268;SDS011;56517;51.634;5.566;2022-08-21T11:54:28;8.48;;;4.93;;
62268;SDS011;56517;51.634;5.566;2022-08-21T11:59:32;9.43;;;4.88;;
62268;SDS011;56517;51.634;5.566;2022-08-21T12:04:35;10.35;;;5.00;;
62268;SDS011;56517;51.634;5.566;2022-08-21T12:09:51;9.52;;;4.28;;
62268;SDS011;56517;51.634;5.566;2022-08-21T12:15:04;12.68;;;5.47;;
62268;SDS011;56517;51.634;5.566;2022-08-21T12:20:15;11.73;;;5.38;;
62268;SDS011;56517;51.634;5.566;2022-08-21T12:25:17;8.10;;;5.43;;
62268;SDS011;56517;51.634;5.566;2022-08-21T12:30:21;10.00;;;5.18;;
62268;SDS011;56517;51.634;5.566;2022-08-21T12:35:23;10.27;;;5.50;;
62268;SDS011;56517;51.634;5.566;2022-08-21T12:40:25;11.10;;;5.95;;
62268;SDS011;56517;51.634;5.566;2022-08-21T12:45:30;8.75;;;4.78;;
62268;SDS011;56517;51.634;5.566;2022-08-21T12:50:32;13.40;;;4.95;;
62268;SDS011;56517;51.634;5.566;2022-08-21T12:55:35;10.75;;;5.25;;
62268;SDS011;56517;51.634;5.566;2022-08-21T13:00:44;7.95;;;4.13;;
62268;SDS011;56517;51.634;5.566;2022-08-21T13:05:47;9.32;;;4.80;;
62268;SDS011;56517;51.634;5.566;2022-08-21T13:10:48;10.75;;;4.68;;
62268;SDS011;56517;51.634;5.566;2022-08-21T13:15:56;10.98;;;5.03;;
62268;SDS011;56517;51.634;5.566;2022-08-21T13:21:03;8.45;;;5.07;;
62268;SDS011;56517;51.634;5.566;2022-08-21T13:26:11;7.65;;;3.97;;
62268;SDS011;56517;51.634;5.566;2022-08-21T13:31:16;10.18;;;4.78;;
62268;SDS011;56517;51.634;5.566;2022-08-21T13:36:17;8.57;;;4.75;;
62268;SDS011;56517;51.634;5.566;2022-08-21T13:41:20;8.65;;;5.05;;
62268;SDS011;56517;51.634;5.566;2022-08-21T13:46:22;10.57;;;5.53;;
62268;SDS011;56517;51.634;5.566;2022-08-21T13:51:24;8.23;;;4.82;;
62268;SDS011;56517;51.634;5.566;2022-08-21T13:56:26;7.72;;;4.68;;
62268;SDS011;56517;51.634;5.566;2022-08-21T14:01:29;9.93;;;4.45;;
62268;SDS011;56517;51.634;5.566;2022-08-21T14:06:32;8.85;;;5.07;;
62268;SDS011;56517;51.634;5.566;2022-08-21T14:11:34;7.80;;;4.63;;
62268;SDS011;56517;51.634;5.566;2022-08-21T14:16:43;10.07;;;4.82;;
62268;SDS011;56517;51.634;5.566;2022-08-21T14:21:44;11.20;;;5.43;;
62268;SDS011;56517;51.634;5.566;2022-08-21T14:26:46;10.90;;;6.13;;
62268;SDS011;56517;51.634;5.566;2022-08-21T14:31:51;8.60;;;5.47;;
62268;SDS011;56517;51.634;5.566;2022-08-21T14:36:52;9.98;;;5.28;;
62268;SDS011;56517;51.634;5.566;2022-08-21T14:41:53;8.75;;;5.30;;
62268;SDS011;56517;51.634;5.566;2022-08-21T14:46:56;10.55;;;4.95;;
62268;SDS011;56517;51.634;5.566;2022-08-21T14:51:57;10.57;;;5.07;;
62268;SDS011;56517;51.634;5.566;2022-08-21T14:56:58;9.88;;;5.45;;
62268;SDS011;56517;51.634;5.566;2022-08-21T15:02:00;12.93;;;5.13;;
62268;SDS011;56517;51.634;5.566;2022-08-21T15:07:01;14.15;;;5.28;;
62268;SDS011;56517;51.634;5.566;2022-08-21T15:12:02;11.18;;;5.35;;
62268;SDS011;56517;51.634;5.566;2022-08-21T15:17:05;12.43;;;5.88;;
62268;SDS011;56517;51.634;5.566;2022-08-21T15:22:05;9.95;;;5.22;;
62268;SDS011;56517;51.634;5.566;2022-08-21T15:27:06;9.77;;;5.07;;
62268;SDS011;56517;51.634;5.566;2022-08-21T15:32:16;12.27;;;5.47;;
62268;SDS011;56517;51.634;5.566;2022-08-21T15:37:17;13.15;;;5.45;;
62268;SDS011;56517;51.634;5.566;2022-08-21T15:42:18;13.43;;;5.53;;
62268;SDS011;56517;51.634;5.566;2022-08-21T15:47:29;14.77;;;5.95;;
62268;SDS011;56517;51.634;5.566;2022-08-21T15:52:30;11.98;;;5.05;;
62268;SDS011;56517;51.634;5.566;2022-08-21T15:57:31;9.52;;;4.72;;
62268;SDS011;56517;51.634;5.566;2022-08-21T16:02:33;10.77;;;5.50;;
62268;SDS011;56517;51.634;5.566;2022-08-21T16:07:34;10.75;;;5.75;;
62268;SDS011;56517;51.634;5.566;2022-08-21T16:12:37;12.52;;;5.30;;
62268;SDS011;56517;51.634;5.566;2022-08-21T16:17:40;10.25;;;5.25;;
62268;SDS011;56517;51.634;5.566;2022-08-21T16:22:41;7.43;;;4.72;;
62268;SDS011;56517;51.634;5.566;2022-08-21T16:27:42;11.50;;;5.47;;
62268;SDS011;56517;51.634;5.566;2022-08-21T16:32:44;14.25;;;4.75;;
62268;SDS011;56517;51.634;5.566;2022-08-21T16:37:45;11.40;;;4.95;;
62268;SDS011;56517;51.634;5.566;2022-08-21T16:42:46;8.77;;;4.63;;
62268;SDS011;56517;51.634;5.566;2022-08-21T16:47:49;7.93;;;5.00;;
62268;SDS011;56517;51.634;5.566;2022-08-21T16:52:49;10.52;;;4.97;;
62268;SDS011;56517;51.634;5.566;2022-08-21T16:57:50;10.85;;;4.20;;
62268;SDS011;56517;51.634;5.566;2022-08-21T17:02:52;9.98;;;4.95;;
62268;SDS011;56517;51.634;5.566;2022-08-21T17:07:54;9.75;;;4.20;;
62268;SDS011;56517;51.634;5.566;2022-08-21T17:12:55;6.57;;;4.07;;
62268;SDS011;56517;51.634;5.566;2022-08-21T17:17:57;12.57;;;5.25;;
62268;SDS011;56517;51.634;5.566;2022-08-21T17:22:58;9.98;;;5.15;;
62268;SDS011;56517;51.634;5.566;2022-08-21T17:27:59;16.75;;;9.07;;
62268;SDS011;56517;51.634;5.566;2022-08-21T17:33:01;16.52;;;9.23;;
62268;SDS011;56517;51.634;5.566;2022-08-21T17:38:01;13.77;;;7.72;;
62268;SDS011;56517;51.634;5.566;2022-08-21T17:43:02;9.80;;;5.40;;
62268;SDS011;56517;51.634;5.566;2022-08-21T17:48:04;12.80;;;5.18;;
62268;SDS011;56517;51.634;5.566;2022-08-21T17:53:05;10.63;;;5.25;;
62268;SDS011;56517;51.634;5.566;2022-08-21T17:58:06;8.98;;;4.45;;
62268;SDS011;56517;51.634;5.566;2022-08-21T18:03:10;14.15;;;5.97;;
62268;SDS011;56517;51.634;5.566;2022-08-21T18:08:11;14.27;;;6.78;;
62268;SDS011;56517;51.634;5.566;2022-08-21T18:13:13;13.05;;;7.28;;
62268;SDS011;56517;51.634;5.566;2022-08-21T18:18:15;20.63;;;9.05;;
62268;SDS011;56517;51.634;5.566;2022-08-21T18:23:16;19.70;;;6.15;;
62268;SDS011;56517;51.634;5.566;2022-08-21T18:28:16;9.88;;;4.72;;
62268;SDS011;56517;51.634;5.566;2022-08-21T18:33:19;13.80;;;5.95;;
62268;SDS011;56517;51.634;5.566;2022-08-21T18:38:21;10.18;;;4.95;;
62268;SDS011;56517;51.634;5.566;2022-08-21T18:43:22;10.80;;;5.10;;
62268;SDS011;56517;51.634;5.566;2022-08-21T18:48:24;15.93;;;6.10;;
62268;SDS011;56517;51.634;5.566;2022-08-21T18:53:24;14.13;;;5.50;;
62268;SDS011;56517;51.634;5.566;2022-08-21T18:58:25;9.27;;;4.57;;
62268;SDS011;56517;51.634;5.566;2022-08-21T19:03:28;15.32;;;5.88;;
62268;SDS011;56517;51.634;5.566;2022-08-21T19:08:29;11.10;;;5.00;;
62268;SDS011;56517;51.634;5.566;2022-08-21T19:13:29;12.85;;;5.30;;
62268;SDS011;56517;51.634;5.566;2022-08-21T19:18:32;11.20;;;5.40;;
62268;SDS011;56517;51.634;5.566;2022-08-21T19:23:33;9.82;;;5.30;;
62268;SDS011;56517;51.634;5.566;2022-08-21T19:28:34;12.38;;;5.07;;
62268;SDS011;56517;51.634;5.566;2022-08-21T19:33:38;12.80;;;5.53;;
62268;SDS011;56517;51.634;5.566;2022-08-21T19:38:39;8.32;;;4.93;;
62268;SDS011;56517;51.634;5.566;2022-08-21T19:43:40;10.68;;;5.35;;
62268;SDS011;56517;51.634;5.566;2022-08-21T19:48:43;13.48;;;5.63;;
62268;SDS011;56517;51.634;5.566;2022-08-21T19:53:44;13.50;;;6.97;;
62268;SDS011;56517;51.634;5.566;2022-08-21T19:58:44;12.38;;;5.78;;
62268;SDS011;56517;51.634;5.566;2022-08-21T20:03:47;9.80;;;5.80;;
62268;SDS011;56517;51.634;5.566;2022-08-21T20:08:47;12.07;;;6.38;;
62268;SDS011;56517;51.634;5.566;2022-08-21T20:13:48;11.73;;;5.57;;
62268;SDS011;56517;51.634;5.566;2022-08-21T20:18:50;11.60;;;5.70;;
62268;SDS011;56517;51.634;5.566;2022-08-21T20:23:51;9.85;;;5.28;;
62268;SDS011;56517;51.634;5.566;2022-08-21T20:28:51;7.63;;;4.85;;
62268;SDS011;56517;51.634;5.566;2022-08-21T20:33:54;9.05;;;5.45;;
62268;SDS011;56517;51.634;5.566;2022-08-21T20:38:54;7.90;;;5.40;;
62268;SDS011;56517;51.634;5.566;2022-08-21T20:43:55;10.18;;;4.93;;
62268;SDS011;56517;51.634;5.566;2022-08-21T20:48:57;11.15;;;5.50;;
62268;SDS011;56517;51.634;5.566;2022-08-21T20:54:00;10.35;;;5.22;;
62268;SDS011;56517;51.634;5.566;2022-08-21T20:59:02;14.93;;;5.95;;
62268;SDS011;56517;51.634;5.566;2022-08-21T21:04:08;11.80;;;5.57;;
62268;SDS011;56517;51.634;5.566;2022-08-21T21:09:12;12.82;;;6.28;;
62268;SDS011;56517;51.634;5.566;2022-08-21T21:14:14;13.68;;;6.00;;
62268;SDS011;56517;51.634;5.566;2022-08-21T21:19:19;10.48;;;6.28;;
62268;SDS011;56517;51.634;5.566;2022-08-21T21:24:24;10.63;;;6.82;;
62268;SDS011;56517;51.634;5.566;2022-08-21T21:29:26;12.77;;;7.65;;
62268;SDS011;56517;51.634;5.566;2022-08-21T21:34:29;13.23;;;6.50;;
62268;SDS011;56517;51.634;5.566;2022-08-21T21:39:35;14.65;;;7.55;;
62268;SDS011;56517;51.634;5.566;2022-08-21T21:44:46;13.50;;;7.35;;
62268;SDS011;56517;51.634;5.566;2022-08-21T21:49:57;14.35;;;6.55;;
62268;SDS011;56517;51.634;5.566;2022-08-21T21:55:02;12.15;;;7.18;;
62268;SDS011;56517;51.634;5.566;2022-08-21T22:00:06;13.75;;;7.22;;
62268;SDS011;56517;51.634;5.566;2022-08-21T22:05:10;11.52;;;7.00;;
62268;SDS011;56517;51.634;5.566;2022-08-21T22:10:14;13.15;;;7.45;;
62268;SDS011;56517;51.634;5.566;2022-08-21T22:15:17;15.05;;;7.30;;
62268;SDS011;56517;51.634;5.566;2022-08-21T22:20:22;11.80;;;7.00;;
62268;SDS011;56517;51.634;5.566;2022-08-21T22:25:25;9.70;;;6.65;;
62268;SDS011;56517;51.634;5.566;2022-08-21T22:30:37;12.40;;;6.93;;
62268;SDS011;56517;51.634;5.566;2022-08-21T22:35:39;11.85;;;7.05;;
62268;SDS011;56517;51.634;5.566;2022-08-21T22:40:40;12.55;;;6.55;;
62268;SDS011;56517;51.634;5.566;2022-08-21T22:45:48;12.15;;;7.63;;
62268;SDS011;56517;51.634;5.566;2022-08-21T22:50:54;16.85;;;8.07;;
62268;SDS011;56517;51.634;5.566;2022-08-21T22:55:56;20.65;;;7.45;;
62268;SDS011;56517;51.634;5.566;2022-08-21T23:00:58;10.75;;;7.97;;
62268;SDS011;56517;51.634;5.566;2022-08-21T23:06:03;13.35;;;8.00;;
62268;SDS011;56517;51.634;5.566;2022-08-21T23:11:06;14.43;;;8.35;;
62268;SDS011;56517;51.634;5.566;2022-08-21T23:16:22;13.65;;;7.50;;
62268;SDS011;56517;51.634;5.566;2022-08-21T23:21:29;13.85;;;8.23;;
62268;SDS011;56517;51.634;5.566;2022-08-21T23:26:34;14.55;;;9.02;;
62268;SDS011;56517;51.634;5.566;2022-08-21T23:31:39;17.45;;;8.23;;
62268;SDS011;56517;51.634;5.566;2022-08-21T23:36:46;13.43;;;8.75;;
62268;SDS011;56517;51.634;5.566;2022-08-21T23:41:53;12.52;;;7.57;;
62268;SDS011;56517;51.634;5.566;2022-08-21T23:46:59;13.95;;;8.77;;
62268;SDS011;56517;51.634;5.566;2022-08-21T23:52:05;12.55;;;8.73;;
62268;SDS011;56517;51.634;5.566;2022-08-21T23:57:09;13.95;;;9.38;;
